createdAt,value
2023-01-03T05:05:23.305Z,8.28
2023-01-03T15:50:42.437Z,3.98
2023-01-03T15:56:24.236Z,3.92
2023-01-03T16:07:07.495Z,3.74
2023-01-03T16:15:38.707Z,3.69
2023-01-03T16:18:29.640Z,3.61
2023-01-03T16:21:33.956Z,3.57
2023-01-03T16:36:20.694Z,3.47
2023-01-03T16:49:22.443Z,3.52
2023-01-03T16:51:57.778Z,3.57
2023-01-03T16:54:48.959Z,3.60
2023-01-03T16:57:35.739Z,3.62
2023-01-03T17:00:26.191Z,3.64
2023-01-03T17:03:09.277Z,3.64
2023-01-03T17:06:06.359Z,3.63
2023-01-03T17:08:52.093Z,3.62
2023-01-03T17:11:41.250Z,3.60
2023-01-03T17:14:26.024Z,3.58
2023-01-03T17:17:13.401Z,3.57
2023-01-03T17:20:16.297Z,3.55
2023-01-03T17:23:09.924Z,3.54
2023-01-03T17:26:01.350Z,3.57
2023-01-03T17:28:41.802Z,3.60
2023-01-03T17:31:33.216Z,3.61
2023-01-03T17:34:26.482Z,3.61
2023-01-03T17:37:04.981Z,3.58
2023-01-03T17:39:39.475Z,3.54
2023-01-03T17:42:35.863Z,3.52
2023-01-03T17:45:34.256Z,3.50
2023-01-03T17:48:21.745Z,3.47
2023-01-03T17:50:52.829Z,3.44
2023-01-03T17:53:22.956Z,3.39
2023-01-03T17:55:51.118Z,3.37
2023-01-03T17:58:27.675Z,3.37
2023-01-03T18:00:55.411Z,3.38
2023-01-03T18:03:45.761Z,3.40
2023-01-03T18:06:36.014Z,3.42
2023-01-03T18:09:22.756Z,3.42
2023-01-03T18:12:18.887Z,3.42
2023-01-03T18:15:07.221Z,3.43
2023-01-03T18:20:47.740Z,3.48
2023-01-03T18:24:04.505Z,3.49
2023-01-03T18:27:01.710Z,3.51
2023-01-03T18:29:54.922Z,3.51
2023-01-03T18:32:56.569Z,3.53
2023-01-03T18:35:44.227Z,3.57
2023-01-03T18:42:09.158Z,3.64
2023-01-03T18:45:26.166Z,3.65
2023-01-03T18:48:55.146Z,3.66
2023-01-03T18:52:43.403Z,3.68
2023-01-03T18:55:57.943Z,3.70
2023-01-03T18:59:10.394Z,3.70
2023-01-03T19:05:58.956Z,3.70
2023-01-03T19:12:36.112Z,3.67
2023-01-03T19:15:55.285Z,3.65
2023-01-03T19:22:53.110Z,3.64
2023-01-03T19:26:13.770Z,3.65
2023-01-03T19:32:57.063Z,3.62
2023-01-03T19:36:05.709Z,3.61
2023-01-03T19:39:30.884Z,3.62
2023-01-03T19:43:03.835Z,3.64
2023-01-03T19:50:11.295Z,3.62
2023-01-03T19:57:05.705Z,3.63
2023-01-03T20:04:14.973Z,3.60
2023-01-03T20:08:07.353Z,3.62
2023-01-03T20:10:52.317Z,3.62
2023-01-03T20:21:47.459Z,3.47
2023-01-03T20:24:43.635Z,3.43
2023-01-03T20:27:30.548Z,3.41
2023-01-03T20:39:24.600Z,3.35
2023-01-03T20:55:06.050Z,3.30
2023-01-03T21:02:18.695Z,3.28
2023-01-03T21:05:44.931Z,3.24
2023-01-03T21:09:23.797Z,3.23
2023-01-03T21:51:52.552Z,3.26
2023-01-03T21:55:53.014Z,3.25
2023-01-03T21:58:55.968Z,3.28
2023-01-03T22:02:14.638Z,3.29
2023-01-03T22:08:49.040Z,3.32
2023-01-03T22:26:56.953Z,3.36
2023-01-03T22:30:22.749Z,3.37
2023-01-03T22:33:49.949Z,3.36
2023-01-03T22:40:37.778Z,3.33
2023-01-03T22:43:33.136Z,3.33
2023-01-03T22:46:21.770Z,3.34
2023-01-03T22:49:13.162Z,3.33
2023-01-03T22:52:02.188Z,3.32
2023-01-03T22:59:05.792Z,3.25
2023-01-03T23:02:17.638Z,3.21
2023-01-03T23:05:29.390Z,3.18
2023-01-03T23:08:31.009Z,3.15
2023-01-03T23:14:33.618Z,3.14
2023-01-03T23:17:33.702Z,3.12
2023-01-03T23:20:31.528Z,3.10
2023-01-03T23:23:33.363Z,3.08
2023-01-03T23:27:12.960Z,3.05
2023-01-03T23:40:13.831Z,2.85
2023-01-03T23:47:27.166Z,2.77
2023-01-03T23:50:37.039Z,2.74
2023-01-03T23:54:22.218Z,2.71
2023-01-03T23:56:36.641Z,2.66
2023-01-03T23:59:45.191Z,2.62
